sensor_id;sensor_type;location;lat;lon;timestamp;temperature;humidity
28530;DHT22;15737;49.760;6.632;2023-06-22T00:01:52;19.70;99.90
28530;DHT22;15737;49.760;6.632;2023-06-22T00:04:18;19.50;99.90
28530;DHT22;15737;49.760;6.632;2023-06-22T00:06:43;19.40;99.90
28530;DHT22;15737;49.760;6.632;2023-06-22T00:09:09;19.30;99.90
28530;DHT22;15737;49.760;6.632;2023-06-22T00:11:38;19.30;99.90
28530;DHT22;15737;49.760;6.632;2023-06-22T00:14:04;19.30;99.90
28530;DHT22;15737;49.760;6.632;2023-06-22T00:16:31;19.30;99.90
28530;DHT22;15737;49.760;6.632;2023-06-22T00:18:57;19.30;99.90
28530;DHT22;15737;49.760;6.632;2023-06-22T00:21:26;19.30;99.90
28530;DHT22;15737;49.760;6.632;2023-06-22T00:23:51;19.30;99.90
28530;DHT22;15737;49.760;6.632;2023-06-22T00:26:17;19.30;99.90
28530;DHT22;15737;49.760;6.632;2023-06-22T00:28:43;19.30;99.90
28530;DHT22;15737;49.760;6.632;2023-06-22T00:31:08;19.30;99.90
28530;DHT22;15737;49.760;6.632;2023-06-22T00:33:34;19.30;99.90
28530;DHT22;15737;49.760;6.632;2023-06-22T00:35:59;19.30;99.90
28530;DHT22;15737;49.760;6.632;2023-06-22T00:38:25;19.30;99.90
28530;DHT22;15737;49.760;6.632;2023-06-22T00:40:51;19.30;99.90
28530;DHT22;15737;49.760;6.632;2023-06-22T00:43:17;19.30;99.90
28530;DHT22;15737;49.760;6.632;2023-06-22T00:45:42;19.30;99.90
28530;DHT22;15737;49.760;6.632;2023-06-22T00:48:08;19.20;99.90
28530;DHT22;15737;49.760;6.632;2023-06-22T00:50:34;19.20;99.90
28530;DHT22;15737;49.760;6.632;2023-06-22T00:53:10;19.20;99.90
28530;DHT22;15737;49.760;6.632;2023-06-22T00:55:45;19.20;99.90
28530;DHT22;15737;49.760;6.632;2023-06-22T00:58:13;19.10;99.90
28530;DHT22;15737;49.760;6.632;2023-06-22T01:00:39;19.10;99.90
28530;DHT22;15737;49.760;6.632;2023-06-22T01:03:05;19.00;99.90
28530;DHT22;15737;49.760;6.632;2023-06-22T01:05:34;19.00;99.90
28530;DHT22;15737;49.760;6.632;2023-06-22T01:11:12;19.00;99.90
28530;DHT22;15737;49.760;6.632;2023-06-22T01:13:48;19.00;99.90
28530;DHT22;15737;49.760;6.632;2023-06-22T01:16:20;19.00;99.90
28530;DHT22;15737;49.760;6.632;2023-06-22T01:18:52;19.10;99.90
28530;DHT22;15737;49.760;6.632;2023-06-22T01:21:19;19.10;99.90
28530;DHT22;15737;49.760;6.632;2023-06-22T01:24:14;19.00;99.90
28530;DHT22;15737;49.760;6.632;2023-06-22T01:27:18;19.00;99.90
28530;DHT22;15737;49.760;6.632;2023-06-22T01:29:51;19.10;99.90
28530;DHT22;15737;49.760;6.632;2023-06-22T01:32:18;19.10;99.90
28530;DHT22;15737;49.760;6.632;2023-06-22T01:34:45;19.10;99.90
28530;DHT22;15737;49.760;6.632;2023-06-22T01:37:12;19.10;99.90
28530;DHT22;15737;49.760;6.632;2023-06-22T01:39:39;19.10;99.90
28530;DHT22;15737;49.760;6.632;2023-06-22T01:42:05;19.10;99.90
28530;DHT22;15737;49.760;6.632;2023-06-22T01:44:31;19.10;99.90
28530;DHT22;15737;49.760;6.632;2023-06-22T01:46:57;19.00;99.90
28530;DHT22;15737;49.760;6.632;2023-06-22T01:49:24;19.00;99.90
28530;DHT22;15737;49.760;6.632;2023-06-22T01:51:49;19.00;99.90
28530;DHT22;15737;49.760;6.632;2023-06-22T01:54:15;19.00;99.90
28530;DHT22;15737;49.760;6.632;2023-06-22T01:56:41;19.00;99.90
28530;DHT22;15737;49.760;6.632;2023-06-22T02:02:21;19.00;99.90
28530;DHT22;15737;49.760;6.632;2023-06-22T02:05:03;19.00;99.90
28530;DHT22;15737;49.760;6.632;2023-06-22T02:07:34;19.00;99.90
28530;DHT22;15737;49.760;6.632;2023-06-22T02:10:02;19.00;99.90
28530;DHT22;15737;49.760;6.632;2023-06-22T02:12:29;18.90;99.90
28530;DHT22;15737;49.760;6.632;2023-06-22T02:14:56;18.90;99.90
28530;DHT22;15737;49.760;6.632;2023-06-22T02:17:23;18.90;99.90
28530;DHT22;15737;49.760;6.632;2023-06-22T02:19:49;18.90;99.90
28530;DHT22;15737;49.760;6.632;2023-06-22T02:22:15;18.90;99.90
28530;DHT22;15737;49.760;6.632;2023-06-22T02:24:40;19.00;99.90
28530;DHT22;15737;49.760;6.632;2023-06-22T02:27:06;19.00;99.90
28530;DHT22;15737;49.760;6.632;2023-06-22T02:29:33;19.10;99.90
28530;DHT22;15737;49.760;6.632;2023-06-22T02:31:58;19.20;99.90
28530;DHT22;15737;49.760;6.632;2023-06-22T02:34:25;19.10;99.90
28530;DHT22;15737;49.760;6.632;2023-06-22T02:36:50;19.10;99.90
28530;DHT22;15737;49.760;6.632;2023-06-22T02:39:22;19.10;99.90
28530;DHT22;15737;49.760;6.632;2023-06-22T02:41:53;19.10;99.90
28530;DHT22;15737;49.760;6.632;2023-06-22T02:44:19;19.10;99.90
28530;DHT22;15737;49.760;6.632;2023-06-22T02:46:45;19.10;99.90
28530;DHT22;15737;49.760;6.632;2023-06-22T02:49:11;19.20;99.90
28530;DHT22;15737;49.760;6.632;2023-06-22T02:51:39;19.20;99.90
28530;DHT22;15737;49.760;6.632;2023-06-22T02:54:05;19.20;99.90
28530;DHT22;15737;49.760;6.632;2023-06-22T02:56:31;19.20;99.90
28530;DHT22;15737;49.760;6.632;2023-06-22T02:58:57;19.20;99.90
28530;DHT22;15737;49.760;6.632;2023-06-22T03:01:29;19.30;99.90
28530;DHT22;15737;49.760;6.632;2023-06-22T03:03:58;19.20;99.90
28530;DHT22;15737;49.760;6.632;2023-06-22T03:06:24;19.20;99.90
28530;DHT22;15737;49.760;6.632;2023-06-22T03:08:59;19.10;99.90
28530;DHT22;15737;49.760;6.632;2023-06-22T03:11:24;19.10;99.90
28530;DHT22;15737;49.760;6.632;2023-06-22T03:13:50;19.10;99.90
28530;DHT22;15737;49.760;6.632;2023-06-22T03:16:17;19.10;99.90
28530;DHT22;15737;49.760;6.632;2023-06-22T03:18:43;19.20;99.90
28530;DHT22;15737;49.760;6.632;2023-06-22T03:21:08;19.30;99.90
28530;DHT22;15737;49.760;6.632;2023-06-22T03:23:34;19.40;99.90
28530;DHT22;15737;49.760;6.632;2023-06-22T03:26:00;19.40;99.90
28530;DHT22;15737;49.760;6.632;2023-06-22T03:28:25;19.50;99.90
28530;DHT22;15737;49.760;6.632;2023-06-22T03:30:50;19.50;99.90
28530;DHT22;15737;49.760;6.632;2023-06-22T03:33:16;19.40;99.90
28530;DHT22;15737;49.760;6.632;2023-06-22T03:35:41;19.40;99.90
28530;DHT22;15737;49.760;6.632;2023-06-22T03:38:07;19.40;99.90
28530;DHT22;15737;49.760;6.632;2023-06-22T03:40:33;19.40;99.90
28530;DHT22;15737;49.760;6.632;2023-06-22T03:42:58;19.40;99.90
28530;DHT22;15737;49.760;6.632;2023-06-22T03:45:24;19.50;99.90
28530;DHT22;15737;49.760;6.632;2023-06-22T03:47:49;19.50;99.90
28530;DHT22;15737;49.760;6.632;2023-06-22T03:50:15;19.40;99.90
28530;DHT22;15737;49.760;6.632;2023-06-22T03:52:40;19.40;99.90
28530;DHT22;15737;49.760;6.632;2023-06-22T03:55:07;19.30;99.90
28530;DHT22;15737;49.760;6.632;2023-06-22T03:57:32;19.40;99.90
28530;DHT22;15737;49.760;6.632;2023-06-22T03:59:58;19.50;99.90
28530;DHT22;15737;49.760;6.632;2023-06-22T04:02:24;19.50;99.90
28530;DHT22;15737;49.760;6.632;2023-06-22T04:04:50;19.60;99.90
28530;DHT22;15737;49.760;6.632;2023-06-22T04:07:15;19.60;99.90
28530;DHT22;15737;49.760;6.632;2023-06-22T04:09:41;19.70;99.90
28530;DHT22;15737;49.760;6.632;2023-06-22T04:12:07;19.80;99.90
28530;DHT22;15737;49.760;6.632;2023-06-22T04:14:32;19.80;99.90
28530;DHT22;15737;49.760;6.632;2023-06-22T04:17:01;19.80;99.90
28530;DHT22;15737;49.760;6.632;2023-06-22T04:19:26;19.70;99.90
28530;DHT22;15737;49.760;6.632;2023-06-22T04:21:52;19.80;99.90
28530;DHT22;15737;49.760;6.632;2023-06-22T04:24:17;19.90;99.90
28530;DHT22;15737;49.760;6.632;2023-06-22T04:26:43;20.00;99.90
28530;DHT22;15737;49.760;6.632;2023-06-22T04:29:10;20.10;99.90
28530;DHT22;15737;49.760;6.632;2023-06-22T04:31:36;20.10;99.90
28530;DHT22;15737;49.760;6.632;2023-06-22T04:34:03;20.30;99.90
28530;DHT22;15737;49.760;6.632;2023-06-22T04:36:41;20.30;99.90
28530;DHT22;15737;49.760;6.632;2023-06-22T04:39:08;20.50;99.90
28530;DHT22;15737;49.760;6.632;2023-06-22T04:41:38;20.60;99.90
28530;DHT22;15737;49.760;6.632;2023-06-22T04:44:17;20.80;99.90
28530;DHT22;15737;49.760;6.632;2023-06-22T04:46:57;21.00;99.90
28530;DHT22;15737;49.760;6.632;2023-06-22T04:49:27;21.40;99.90
28530;DHT22;15737;49.760;6.632;2023-06-22T04:52:02;21.90;99.90
28530;DHT22;15737;49.760;6.632;2023-06-22T04:54:29;22.50;99.90
28530;DHT22;15737;49.760;6.632;2023-06-22T04:56:54;23.10;99.90
28530;DHT22;15737;49.760;6.632;2023-06-22T04:59:23;23.50;99.90
28530;DHT22;15737;49.760;6.632;2023-06-22T05:01:54;23.60;99.90
28530;DHT22;15737;49.760;6.632;2023-06-22T05:04:21;23.70;99.90
28530;DHT22;15737;49.760;6.632;2023-06-22T05:06:47;23.80;99.90
28530;DHT22;15737;49.760;6.632;2023-06-22T05:09:13;24.10;99.90
28530;DHT22;15737;49.760;6.632;2023-06-22T05:11:38;24.60;99.90
28530;DHT22;15737;49.760;6.632;2023-06-22T05:14:04;25.00;99.90
28530;DHT22;15737;49.760;6.632;2023-06-22T05:16:29;25.20;99.90
28530;DHT22;15737;49.760;6.632;2023-06-22T05:18:55;25.00;99.90
28530;DHT22;15737;49.760;6.632;2023-06-22T05:21:26;24.90;99.90
28530;DHT22;15737;49.760;6.632;2023-06-22T05:23:53;24.70;99.90
28530;DHT22;15737;49.760;6.632;2023-06-22T05:26:20;25.00;99.90
28530;DHT22;15737;49.760;6.632;2023-06-22T05:28:46;25.70;99.90
28530;DHT22;15737;49.760;6.632;2023-06-22T05:31:13;26.50;99.90
28530;DHT22;15737;49.760;6.632;2023-06-22T05:33:39;26.60;99.90
28530;DHT22;15737;49.760;6.632;2023-06-22T05:36:05;26.60;99.90
28530;DHT22;15737;49.760;6.632;2023-06-22T05:38:30;27.00;99.90
28530;DHT22;15737;49.760;6.632;2023-06-22T05:40:56;27.80;99.90
28530;DHT22;15737;49.760;6.632;2023-06-22T05:43:22;27.90;99.90
28530;DHT22;15737;49.760;6.632;2023-06-22T05:45:47;28.50;99.90
28530;DHT22;15737;49.760;6.632;2023-06-22T05:48:13;29.10;99.90
28530;DHT22;15737;49.760;6.632;2023-06-22T05:50:38;28.60;99.90
28530;DHT22;15737;49.760;6.632;2023-06-22T05:53:08;27.70;99.90
28530;DHT22;15737;49.760;6.632;2023-06-22T05:55:33;26.80;99.90
28530;DHT22;15737;49.760;6.632;2023-06-22T05:57:59;26.20;99.90
28530;DHT22;15737;49.760;6.632;2023-06-22T06:00:25;25.90;99.90
28530;DHT22;15737;49.760;6.632;2023-06-22T06:02:50;25.70;99.90
28530;DHT22;15737;49.760;6.632;2023-06-22T06:05:16;26.00;99.90
28530;DHT22;15737;49.760;6.632;2023-06-22T06:07:47;26.10;99.90
28530;DHT22;15737;49.760;6.632;2023-06-22T06:10:20;25.90;99.90
28530;DHT22;15737;49.760;6.632;2023-06-22T06:12:45;26.20;99.90
28530;DHT22;15737;49.760;6.632;2023-06-22T06:15:11;26.90;99.90
28530;DHT22;15737;49.760;6.632;2023-06-22T06:17:45;27.30;99.90
28530;DHT22;15737;49.760;6.632;2023-06-22T06:20:11;27.50;99.90
28530;DHT22;15737;49.760;6.632;2023-06-22T06:22:37;28.20;99.90
28530;DHT22;15737;49.760;6.632;2023-06-22T06:25:03;28.60;99.90
28530;DHT22;15737;49.760;6.632;2023-06-22T06:27:30;29.40;99.90
28530;DHT22;15737;49.760;6.632;2023-06-22T06:29:55;30.20;99.90
28530;DHT22;15737;49.760;6.632;2023-06-22T06:32:28;31.00;99.90
28530;DHT22;15737;49.760;6.632;2023-06-22T06:35:10;31.00;99.90
28530;DHT22;15737;49.760;6.632;2023-06-22T06:37:44;31.30;99.90
28530;DHT22;15737;49.760;6.632;2023-06-22T06:40:11;32.20;99.50
28530;DHT22;15737;49.760;6.632;2023-06-22T06:42:42;33.10;97.00
28530;DHT22;15737;49.760;6.632;2023-06-22T06:45:22;34.10;93.90
28530;DHT22;15737;49.760;6.632;2023-06-22T06:47:59;34.40;91.50
28530;DHT22;15737;49.760;6.632;2023-06-22T06:50:25;33.80;91.10
28530;DHT22;15737;49.760;6.632;2023-06-22T06:52:50;33.90;90.10
28530;DHT22;15737;49.760;6.632;2023-06-22T06:55:16;33.90;88.80
28530;DHT22;15737;49.760;6.632;2023-06-22T06:57:42;33.90;88.00
28530;DHT22;15737;49.760;6.632;2023-06-22T07:00:10;34.30;85.10
28530;DHT22;15737;49.760;6.632;2023-06-22T07:02:41;34.40;83.60
28530;DHT22;15737;49.760;6.632;2023-06-22T07:05:13;34.70;81.80
28530;DHT22;15737;49.760;6.632;2023-06-22T07:07:55;34.60;81.20
28530;DHT22;15737;49.760;6.632;2023-06-22T07:10:22;33.40;83.80
28530;DHT22;15737;49.760;6.632;2023-06-22T07:12:47;32.30;87.90
28530;DHT22;15737;49.760;6.632;2023-06-22T07:15:13;32.00;88.80
28530;DHT22;15737;49.760;6.632;2023-06-22T07:17:39;32.30;87.70
28530;DHT22;15737;49.760;6.632;2023-06-22T07:20:09;33.50;83.90
28530;DHT22;15737;49.760;6.632;2023-06-22T07:22:36;34.40;81.10
28530;DHT22;15737;49.760;6.632;2023-06-22T07:25:02;35.50;77.10
28530;DHT22;15737;49.760;6.632;2023-06-22T07:27:37;36.80;73.20
28530;DHT22;15737;49.760;6.632;2023-06-22T07:30:04;37.50;69.50
28530;DHT22;15737;49.760;6.632;2023-06-22T07:32:29;37.50;68.50
28530;DHT22;15737;49.760;6.632;2023-06-22T07:34:55;38.30;65.50
28530;DHT22;15737;49.760;6.632;2023-06-22T07:37:21;38.70;62.20
28530;DHT22;15737;49.760;6.632;2023-06-22T07:39:46;38.50;61.50
28530;DHT22;15737;49.760;6.632;2023-06-22T07:42:12;38.50;61.20
28530;DHT22;15737;49.760;6.632;2023-06-22T07:44:37;39.20;59.50
28530;DHT22;15737;49.760;6.632;2023-06-22T07:47:03;39.30;58.50
28530;DHT22;15737;49.760;6.632;2023-06-22T07:49:29;39.60;58.20
28530;DHT22;15737;49.760;6.632;2023-06-22T07:51:54;40.20;56.30
28530;DHT22;15737;49.760;6.632;2023-06-22T07:54:20;38.70;58.50
28530;DHT22;15737;49.760;6.632;2023-06-22T07:56:46;38.10;59.70
28530;DHT22;15737;49.760;6.632;2023-06-22T07:59:12;37.50;60.80
28530;DHT22;15737;49.760;6.632;2023-06-22T08:01:37;38.20;59.50
28530;DHT22;15737;49.760;6.632;2023-06-22T08:04:03;38.80;58.20
28530;DHT22;15737;49.760;6.632;2023-06-22T08:06:30;38.90;58.20
28530;DHT22;15737;49.760;6.632;2023-06-22T08:08:56;37.20;59.60
28530;DHT22;15737;49.760;6.632;2023-06-22T08:11:24;34.60;66.30
28530;DHT22;15737;49.760;6.632;2023-06-22T08:13:57;32.80;71.80
28530;DHT22;15737;49.760;6.632;2023-06-22T08:16:26;32.10;74.90
28530;DHT22;15737;49.760;6.632;2023-06-22T08:18:52;32.20;74.90
28530;DHT22;15737;49.760;6.632;2023-06-22T08:21:17;32.00;75.50
28530;DHT22;15737;49.760;6.632;2023-06-22T08:23:43;31.30;78.00
28530;DHT22;15737;49.760;6.632;2023-06-22T08:26:08;30.30;81.20
28530;DHT22;15737;49.760;6.632;2023-06-22T08:28:34;29.40;84.70
28530;DHT22;15737;49.760;6.632;2023-06-22T08:31:00;28.80;87.10
28530;DHT22;15737;49.760;6.632;2023-06-22T08:33:26;28.40;89.40
28530;DHT22;15737;49.760;6.632;2023-06-22T08:35:54;28.30;90.20
28530;DHT22;15737;49.760;6.632;2023-06-22T08:38:20;28.10;90.80
28530;DHT22;15737;49.760;6.632;2023-06-22T08:40:45;27.70;91.50
28530;DHT22;15737;49.760;6.632;2023-06-22T08:43:11;27.40;92.30
28530;DHT22;15737;49.760;6.632;2023-06-22T08:45:41;27.30;92.80
28530;DHT22;15737;49.760;6.632;2023-06-22T08:48:06;27.30;93.10
28530;DHT22;15737;49.760;6.632;2023-06-22T08:50:32;27.30;93.30
28530;DHT22;15737;49.760;6.632;2023-06-22T08:52:57;27.10;93.70
28530;DHT22;15737;49.760;6.632;2023-06-22T08:55:23;26.90;94.40
28530;DHT22;15737;49.760;6.632;2023-06-22T08:57:48;26.70;95.10
28530;DHT22;15737;49.760;6.632;2023-06-22T09:00:16;26.50;95.90
28530;DHT22;15737;49.760;6.632;2023-06-22T09:02:52;26.30;96.60
28530;DHT22;15737;49.760;6.632;2023-06-22T09:05:31;26.10;97.40
28530;DHT22;15737;49.760;6.632;2023-06-22T09:08:03;25.90;98.40
28530;DHT22;15737;49.760;6.632;2023-06-22T09:10:29;25.40;99.90
28530;DHT22;15737;49.760;6.632;2023-06-22T09:12:54;24.70;99.90
28530;DHT22;15737;49.760;6.632;2023-06-22T09:15:20;24.20;99.90
28530;DHT22;15737;49.760;6.632;2023-06-22T09:17:52;23.40;99.90
28530;DHT22;15737;49.760;6.632;2023-06-22T09:20:26;22.80;99.90
28530;DHT22;15737;49.760;6.632;2023-06-22T09:22:52;22.20;99.90
28530;DHT22;15737;49.760;6.632;2023-06-22T09:25:17;21.80;99.90
28530;DHT22;15737;49.760;6.632;2023-06-22T09:27:46;21.50;99.90
28530;DHT22;15737;49.760;6.632;2023-06-22T09:30:11;21.50;99.90
28530;DHT22;15737;49.760;6.632;2023-06-22T09:32:47;21.60;99.90
28530;DHT22;15737;49.760;6.632;2023-06-22T09:35:19;21.90;99.90
28530;DHT22;15737;49.760;6.632;2023-06-22T09:37:49;22.10;99.90
28530;DHT22;15737;49.760;6.632;2023-06-22T09:40:28;22.20;99.90
28530;DHT22;15737;49.760;6.632;2023-06-22T09:43:06;22.30;99.90
28530;DHT22;15737;49.760;6.632;2023-06-22T09:45:39;22.60;99.90
28530;DHT22;15737;49.760;6.632;2023-06-22T09:48:18;22.90;99.90
28530;DHT22;15737;49.760;6.632;2023-06-22T09:51:02;23.30;99.90
28530;DHT22;15737;49.760;6.632;2023-06-22T09:53:44;23.50;99.90
28530;DHT22;15737;49.760;6.632;2023-06-22T09:56:21;23.70;99.90
28530;DHT22;15737;49.760;6.632;2023-06-22T10:01:33;23.80;99.90
28530;DHT22;15737;49.760;6.632;2023-06-22T10:04:09;24.10;99.90
28530;DHT22;15737;49.760;6.632;2023-06-22T10:06:46;24.40;99.90
28530;DHT22;15737;49.760;6.632;2023-06-22T10:09:25;24.90;99.90
28530;DHT22;15737;49.760;6.632;2023-06-22T10:11:59;25.70;99.90
28530;DHT22;15737;49.760;6.632;2023-06-22T10:14:37;26.50;99.90
28530;DHT22;15737;49.760;6.632;2023-06-22T10:17:17;27.80;99.90
28530;DHT22;15737;49.760;6.632;2023-06-22T10:19:56;30.60;99.90
28530;DHT22;15737;49.760;6.632;2023-06-22T10:22:42;31.90;99.90
28530;DHT22;15737;49.760;6.632;2023-06-22T10:25:15;32.10;99.90
28530;DHT22;15737;49.760;6.632;2023-06-22T10:27:46;32.00;99.90
28530;DHT22;15737;49.760;6.632;2023-06-22T10:32:56;33.60;99.90
28530;DHT22;15737;49.760;6.632;2023-06-22T10:35:36;33.70;99.90
28530;DHT22;15737;49.760;6.632;2023-06-22T10:38:12;34.40;99.90
28530;DHT22;15737;49.760;6.632;2023-06-22T10:40:50;34.30;99.90
28530;DHT22;15737;49.760;6.632;2023-06-22T10:43:26;33.70;99.90
28530;DHT22;15737;49.760;6.632;2023-06-22T10:46:02;33.50;99.90
28530;DHT22;15737;49.760;6.632;2023-06-22T10:48:38;33.30;99.90
28530;DHT22;15737;49.760;6.632;2023-06-22T10:51:10;31.90;99.90
28530;DHT22;15737;49.760;6.632;2023-06-22T10:53:41;31.60;99.90
28530;DHT22;15737;49.760;6.632;2023-06-22T10:56:14;32.00;99.90
28530;DHT22;15737;49.760;6.632;2023-06-22T10:58:46;32.40;99.90
28530;DHT22;15737;49.760;6.632;2023-06-22T11:01:14;32.40;99.90
28530;DHT22;15737;49.760;6.632;2023-06-22T11:03:47;32.10;99.90
28530;DHT22;15737;49.760;6.632;2023-06-22T11:06:23;31.70;99.90
28530;DHT22;15737;49.760;6.632;2023-06-22T11:09:05;31.40;99.90
28530;DHT22;15737;49.760;6.632;2023-06-22T11:11:41;31.20;99.90
28530;DHT22;15737;49.760;6.632;2023-06-22T11:14:17;31.40;99.90
28530;DHT22;15737;49.760;6.632;2023-06-22T11:17:03;32.10;99.90
28530;DHT22;15737;49.760;6.632;2023-06-22T11:19:37;32.90;99.90
28530;DHT22;15737;49.760;6.632;2023-06-22T11:22:16;33.50;99.30
28530;DHT22;15737;49.760;6.632;2023-06-22T11:24:49;33.60;97.80
28530;DHT22;15737;49.760;6.632;2023-06-22T11:27:22;33.60;97.90
28530;DHT22;15737;49.760;6.632;2023-06-22T11:29:55;33.70;96.50
28530;DHT22;15737;49.760;6.632;2023-06-22T11:32:21;33.20;96.30
28530;DHT22;15737;49.760;6.632;2023-06-22T11:34:50;32.90;96.70
28530;DHT22;15737;49.760;6.632;2023-06-22T11:37:25;32.90;96.70
28530;DHT22;15737;49.760;6.632;2023-06-22T11:40:04;33.10;96.50
28530;DHT22;15737;49.760;6.632;2023-06-22T11:42:37;33.90;95.30
28530;DHT22;15737;49.760;6.632;2023-06-22T11:45:18;35.20;93.40
28530;DHT22;15737;49.760;6.632;2023-06-22T11:47:51;36.40;91.70
28530;DHT22;15737;49.760;6.632;2023-06-22T11:50:22;37.00;89.70
28530;DHT22;15737;49.760;6.632;2023-06-22T11:52:48;37.20;87.00
28530;DHT22;15737;49.760;6.632;2023-06-22T11:55:13;36.70;86.80
28530;DHT22;15737;49.760;6.632;2023-06-22T11:57:53;37.10;86.00
28530;DHT22;15737;49.760;6.632;2023-06-22T12:00:26;37.70;83.70
28530;DHT22;15737;49.760;6.632;2023-06-22T12:03:01;38.30;80.90
28530;DHT22;15737;49.760;6.632;2023-06-22T12:05:39;38.40;79.50
28530;DHT22;15737;49.760;6.632;2023-06-22T12:08:18;38.50;78.10
28530;DHT22;15737;49.760;6.632;2023-06-22T12:10:57;37.90;76.00
28530;DHT22;15737;49.760;6.632;2023-06-22T12:13:38;37.50;77.80
28530;DHT22;15737;49.760;6.632;2023-06-22T12:16:20;37.80;77.20
28530;DHT22;15737;49.760;6.632;2023-06-22T12:18:59;38.60;75.50
28530;DHT22;15737;49.760;6.632;2023-06-22T12:21:27;39.10;73.40
28530;DHT22;15737;49.760;6.632;2023-06-22T12:23:53;39.40;72.20
28530;DHT22;15737;49.760;6.632;2023-06-22T12:26:26;39.40;71.10
28530;DHT22;15737;49.760;6.632;2023-06-22T12:29:00;38.80;69.90
28530;DHT22;15737;49.760;6.632;2023-06-22T12:31:36;38.80;70.60
28530;DHT22;15737;49.760;6.632;2023-06-22T12:34:08;39.20;69.60
28530;DHT22;15737;49.760;6.632;2023-06-22T12:36:41;39.60;67.20
28530;DHT22;15737;49.760;6.632;2023-06-22T12:39:08;39.90;66.80
28530;DHT22;15737;49.760;6.632;2023-06-22T12:41:40;39.80;65.30
28530;DHT22;15737;49.760;6.632;2023-06-22T12:44:17;39.10;66.40
28530;DHT22;15737;49.760;6.632;2023-06-22T12:46:56;38.60;67.10
28530;DHT22;15737;49.760;6.632;2023-06-22T12:49:30;37.80;68.30
28530;DHT22;15737;49.760;6.632;2023-06-22T12:52:01;36.90;69.70
28530;DHT22;15737;49.760;6.632;2023-06-22T12:54:37;36.30;71.50
28530;DHT22;15737;49.760;6.632;2023-06-22T12:57:13;35.70;72.90
28530;DHT22;15737;49.760;6.632;2023-06-22T12:59:49;35.20;73.60
28530;DHT22;15737;49.760;6.632;2023-06-22T13:02:21;34.90;74.40
28530;DHT22;15737;49.760;6.632;2023-06-22T13:04:53;34.80;75.20
28530;DHT22;15737;49.760;6.632;2023-06-22T13:07:32;34.70;75.60
28530;DHT22;15737;49.760;6.632;2023-06-22T13:10:11;34.60;75.50
28530;DHT22;15737;49.760;6.632;2023-06-22T13:12:39;33.40;79.80
28530;DHT22;15737;49.760;6.632;2023-06-22T13:15:05;31.50;86.80
28530;DHT22;15737;49.760;6.632;2023-06-22T13:17:35;29.80;93.70
28530;DHT22;15737;49.760;6.632;2023-06-22T13:20:06;27.90;98.30
28530;DHT22;15737;49.760;6.632;2023-06-22T13:22:33;26.20;99.90
28530;DHT22;15737;49.760;6.632;2023-06-22T13:25:05;24.70;99.90
28530;DHT22;15737;49.760;6.632;2023-06-22T13:27:31;23.80;99.90
28530;DHT22;15737;49.760;6.632;2023-06-22T13:29:57;23.30;99.90
28530;DHT22;15737;49.760;6.632;2023-06-22T13:32:23;22.20;99.90
28530;DHT22;15737;49.760;6.632;2023-06-22T13:34:48;21.00;99.90
28530;DHT22;15737;49.760;6.632;2023-06-22T13:37:14;20.40;99.90
28530;DHT22;15737;49.760;6.632;2023-06-22T13:39:40;20.20;99.90
28530;DHT22;15737;49.760;6.632;2023-06-22T13:42:05;20.00;99.90
28530;DHT22;15737;49.760;6.632;2023-06-22T13:44:31;19.80;99.90
28530;DHT22;15737;49.760;6.632;2023-06-22T13:46:56;19.50;99.90
28530;DHT22;15737;49.760;6.632;2023-06-22T13:49:22;19.50;99.90
28530;DHT22;15737;49.760;6.632;2023-06-22T13:51:48;19.60;99.90
28530;DHT22;15737;49.760;6.632;2023-06-22T13:54:14;19.70;99.90
28530;DHT22;15737;49.760;6.632;2023-06-22T13:56:47;19.70;99.90
28530;DHT22;15737;49.760;6.632;2023-06-22T13:59:21;19.80;99.90
28530;DHT22;15737;49.760;6.632;2023-06-22T14:01:47;19.90;99.90
28530;DHT22;15737;49.760;6.632;2023-06-22T14:04:13;20.10;99.90
28530;DHT22;15737;49.760;6.632;2023-06-22T14:06:38;20.20;99.90
28530;DHT22;15737;49.760;6.632;2023-06-22T14:09:04;20.40;99.90
28530;DHT22;15737;49.760;6.632;2023-06-22T14:11:29;20.50;99.90
28530;DHT22;15737;49.760;6.632;2023-06-22T14:13:55;20.70;99.90
28530;DHT22;15737;49.760;6.632;2023-06-22T14:16:20;20.80;99.90
28530;DHT22;15737;49.760;6.632;2023-06-22T14:18:46;21.00;99.90
28530;DHT22;15737;49.760;6.632;2023-06-22T14:21:11;21.20;99.90
28530;DHT22;15737;49.760;6.632;2023-06-22T14:23:37;21.50;99.90
28530;DHT22;15737;49.760;6.632;2023-06-22T14:26:03;21.80;99.90
28530;DHT22;15737;49.760;6.632;2023-06-22T14:28:28;22.10;99.90
28530;DHT22;15737;49.760;6.632;2023-06-22T14:30:57;22.40;99.90
28530;DHT22;15737;49.760;6.632;2023-06-22T14:33:29;22.70;99.90
28530;DHT22;15737;49.760;6.632;2023-06-22T14:35:54;23.00;99.90
28530;DHT22;15737;49.760;6.632;2023-06-22T14:38:20;23.10;99.90
28530;DHT22;15737;49.760;6.632;2023-06-22T14:40:46;23.30;99.90
28530;DHT22;15737;49.760;6.632;2023-06-22T14:43:12;23.50;99.90
28530;DHT22;15737;49.760;6.632;2023-06-22T14:45:37;23.70;99.90
28530;DHT22;15737;49.760;6.632;2023-06-22T14:48:02;23.80;99.90
28530;DHT22;15737;49.760;6.632;2023-06-22T14:50:28;23.90;99.90
28530;DHT22;15737;49.760;6.632;2023-06-22T14:52:53;24.10;99.90
28530;DHT22;15737;49.760;6.632;2023-06-22T14:55:28;24.40;99.90
28530;DHT22;15737;49.760;6.632;2023-06-22T14:58:07;24.50;99.90
28530;DHT22;15737;49.760;6.632;2023-06-22T15:00:49;24.40;99.90
28530;DHT22;15737;49.760;6.632;2023-06-22T15:03:25;24.50;99.90
28530;DHT22;15737;49.760;6.632;2023-06-22T15:05:54;24.70;99.90
28530;DHT22;15737;49.760;6.632;2023-06-22T15:08:20;24.90;99.90
28530;DHT22;15737;49.760;6.632;2023-06-22T15:10:46;25.10;99.90
28530;DHT22;15737;49.760;6.632;2023-06-22T15:13:12;25.20;99.90
28530;DHT22;15737;49.760;6.632;2023-06-22T15:15:47;25.20;99.90
28530;DHT22;15737;49.760;6.632;2023-06-22T15:18:28;25.20;99.90
28530;DHT22;15737;49.760;6.632;2023-06-22T15:21:08;25.40;99.90
28530;DHT22;15737;49.760;6.632;2023-06-22T15:23:34;25.60;99.90
28530;DHT22;15737;49.760;6.632;2023-06-22T15:26:03;25.90;99.90
28530;DHT22;15737;49.760;6.632;2023-06-22T15:28:30;26.20;99.90
28530;DHT22;15737;49.760;6.632;2023-06-22T15:30:58;26.60;99.90
28530;DHT22;15737;49.760;6.632;2023-06-22T15:33:25;26.70;99.90
28530;DHT22;15737;49.760;6.632;2023-06-22T15:35:50;26.60;99.90
28530;DHT22;15737;49.760;6.632;2023-06-22T15:38:18;26.60;99.90
28530;DHT22;15737;49.760;6.632;2023-06-22T15:40:43;26.80;99.90
28530;DHT22;15737;49.760;6.632;2023-06-22T15:43:12;26.80;99.90
28530;DHT22;15737;49.760;6.632;2023-06-22T15:45:39;26.50;99.90
28530;DHT22;15737;49.760;6.632;2023-06-22T15:48:05;26.30;99.90
28530;DHT22;15737;49.760;6.632;2023-06-22T15:50:30;26.20;99.90
28530;DHT22;15737;49.760;6.632;2023-06-22T15:52:56;26.10;99.90
28530;DHT22;15737;49.760;6.632;2023-06-22T15:55:22;26.10;99.90